sensor_id;sensor_type;location;lat;lon;timestamp;P1;durP1;ratioP1;P2;durP2;ratioP2
55776;SDS011;54079;44.540;18.784;2024-02-28T00:02:02;3.95;;;2.50;;
55776;SDS011;54079;44.540;18.784;2024-02-28T00:04:28;2.72;;;1.27;;
55776;SDS011;54079;44.540;18.784;2024-02-28T00:06:54;2.80;;;2.00;;
55776;SDS011;54079;44.540;18.784;2024-02-28T00:09:20;2.65;;;2.03;;
55776;SDS011;54079;44.540;18.784;2024-02-28T00:11:46;2.08;;;1.63;;
55776;SDS011;54079;44.540;18.784;2024-02-28T00:14:13;2.38;;;1.38;;
55776;SDS011;54079;44.540;18.784;2024-02-28T00:16:43;1.63;;;1.10;;
55776;SDS011;54079;44.540;18.784;2024-02-28T00:19:09;3.97;;;2.30;;
55776;SDS011;54079;44.540;18.784;2024-02-28T00:21:39;6.68;;;4.07;;
55776;SDS011;54079;44.540;18.784;2024-02-28T00:24:06;6.47;;;4.40;;
55776;SDS011;54079;44.540;18.784;2024-02-28T00:26:32;2.53;;;2.08;;
55776;SDS011;54079;44.540;18.784;2024-02-28T00:28:58;1.90;;;0.98;;
55776;SDS011;54079;44.540;18.784;2024-02-28T00:31:24;6.28;;;3.17;;
55776;SDS011;54079;44.540;18.784;2024-02-28T00:33:51;5.63;;;3.42;;
55776;SDS011;54079;44.540;18.784;2024-02-28T00:36:17;3.35;;;2.05;;
55776;SDS011;54079;44.540;18.784;2024-02-28T00:38:43;3.30;;;2.30;;
55776;SDS011;54079;44.540;18.784;2024-02-28T00:41:09;6.00;;;3.90;;
55776;SDS011;54079;44.540;18.784;2024-02-28T00:43:35;6.65;;;4.95;;
55776;SDS011;54079;44.540;18.784;2024-02-28T00:46:01;8.43;;;5.05;;
55776;SDS011;54079;44.540;18.784;2024-02-28T00:48:28;6.70;;;4.20;;
55776;SDS011;54079;44.540;18.784;2024-02-28T00:50:54;6.88;;;4.85;;
55776;SDS011;54079;44.540;18.784;2024-02-28T00:53:20;5.45;;;3.20;;
55776;SDS011;54079;44.540;18.784;2024-02-28T00:55:46;3.97;;;2.50;;
55776;SDS011;54079;44.540;18.784;2024-02-28T00:58:12;4.85;;;3.33;;
55776;SDS011;54079;44.540;18.784;2024-02-28T01:00:38;8.18;;;5.43;;
55776;SDS011;54079;44.540;18.784;2024-02-28T01:03:04;7.75;;;4.47;;
55776;SDS011;54079;44.540;18.784;2024-02-28T01:05:30;8.10;;;5.25;;
55776;SDS011;54079;44.540;18.784;2024-02-28T01:07:56;4.90;;;3.25;;
55776;SDS011;54079;44.540;18.784;2024-02-28T01:10:22;5.78;;;2.47;;
55776;SDS011;54079;44.540;18.784;2024-02-28T01:12:48;3.22;;;1.85;;
55776;SDS011;54079;44.540;18.784;2024-02-28T01:15:14;4.55;;;3.28;;
55776;SDS011;54079;44.540;18.784;2024-02-28T01:17:40;4.88;;;1.67;;
55776;SDS011;54079;44.540;18.784;2024-02-28T01:20:07;4.38;;;2.78;;
55776;SDS011;54079;44.540;18.784;2024-02-28T01:22:34;8.02;;;4.80;;
55776;SDS011;54079;44.540;18.784;2024-02-28T01:25:00;4.30;;;2.75;;
55776;SDS011;54079;44.540;18.784;2024-02-28T01:27:28;2.30;;;1.77;;
55776;SDS011;54079;44.540;18.784;2024-02-28T01:29:54;3.92;;;2.10;;
55776;SDS011;54079;44.540;18.784;2024-02-28T01:32:20;4.18;;;2.67;;
55776;SDS011;54079;44.540;18.784;2024-02-28T01:34:46;6.28;;;3.67;;
55776;SDS011;54079;44.540;18.784;2024-02-28T01:37:12;3.20;;;1.98;;
55776;SDS011;54079;44.540;18.784;2024-02-28T01:39:38;4.72;;;2.83;;
55776;SDS011;54079;44.540;18.784;2024-02-28T01:42:04;6.50;;;4.22;;
55776;SDS011;54079;44.540;18.784;2024-02-28T01:44:30;5.15;;;2.78;;
55776;SDS011;54079;44.540;18.784;2024-02-28T01:46:56;4.07;;;2.00;;
55776;SDS011;54079;44.540;18.784;2024-02-28T01:49:23;3.70;;;1.73;;
55776;SDS011;54079;44.540;18.784;2024-02-28T01:51:50;2.65;;;1.38;;
55776;SDS011;54079;44.540;18.784;2024-02-28T01:54:18;6.45;;;3.00;;
55776;SDS011;54079;44.540;18.784;2024-02-28T01:56:46;6.50;;;4.25;;
55776;SDS011;54079;44.540;18.784;2024-02-28T01:59:12;4.60;;;3.30;;
55776;SDS011;54079;44.540;18.784;2024-02-28T02:01:39;4.60;;;2.70;;
55776;SDS011;54079;44.540;18.784;2024-02-28T02:04:05;4.68;;;3.22;;
55776;SDS011;54079;44.540;18.784;2024-02-28T02:06:31;3.88;;;2.70;;
55776;SDS011;54079;44.540;18.784;2024-02-28T02:08:58;4.75;;;2.13;;
55776;SDS011;54079;44.540;18.784;2024-02-28T02:11:24;6.70;;;4.40;;
55776;SDS011;54079;44.540;18.784;2024-02-28T02:13:51;4.78;;;3.75;;
55776;SDS011;54079;44.540;18.784;2024-02-28T02:16:20;5.03;;;3.63;;
55776;SDS011;54079;44.540;18.784;2024-02-28T02:18:52;6.57;;;3.75;;
55776;SDS011;54079;44.540;18.784;2024-02-28T02:21:19;5.35;;;2.78;;
55776;SDS011;54079;44.540;18.784;2024-02-28T02:23:49;4.63;;;1.92;;
55776;SDS011;54079;44.540;18.784;2024-02-28T02:26:15;4.00;;;1.80;;
55776;SDS011;54079;44.540;18.784;2024-02-28T02:28:40;5.95;;;2.83;;
55776;SDS011;54079;44.540;18.784;2024-02-28T02:31:07;3.28;;;2.47;;
55776;SDS011;54079;44.540;18.784;2024-02-28T02:33:33;6.03;;;4.15;;
55776;SDS011;54079;44.540;18.784;2024-02-28T02:35:59;4.15;;;2.00;;
55776;SDS011;54079;44.540;18.784;2024-02-28T02:38:25;10.07;;;7.40;;
55776;SDS011;54079;44.540;18.784;2024-02-28T02:40:51;7.55;;;4.85;;
55776;SDS011;54079;44.540;18.784;2024-02-28T02:43:18;7.65;;;5.13;;
55776;SDS011;54079;44.540;18.784;2024-02-28T02:45:44;5.85;;;2.97;;
55776;SDS011;54079;44.540;18.784;2024-02-28T02:48:10;6.88;;;4.30;;
55776;SDS011;54079;44.540;18.784;2024-02-28T02:50:36;5.57;;;4.53;;
55776;SDS011;54079;44.540;18.784;2024-02-28T02:53:02;4.90;;;3.50;;
55776;SDS011;54079;44.540;18.784;2024-02-28T02:55:29;5.15;;;3.97;;
55776;SDS011;54079;44.540;18.784;2024-02-28T02:57:55;7.75;;;6.07;;
55776;SDS011;54079;44.540;18.784;2024-02-28T03:00:21;12.15;;;7.63;;
55776;SDS011;54079;44.540;18.784;2024-02-28T03:02:48;9.13;;;5.90;;
55776;SDS011;54079;44.540;18.784;2024-02-28T03:05:14;12.50;;;9.32;;
55776;SDS011;54079;44.540;18.784;2024-02-28T03:07:40;8.02;;;6.03;;
55776;SDS011;54079;44.540;18.784;2024-02-28T03:10:06;8.00;;;4.70;;
55776;SDS011;54079;44.540;18.784;2024-02-28T03:12:32;8.82;;;6.05;;
55776;SDS011;54079;44.540;18.784;2024-02-28T03:14:58;7.50;;;5.22;;
55776;SDS011;54079;44.540;18.784;2024-02-28T03:17:24;8.85;;;6.25;;
55776;SDS011;54079;44.540;18.784;2024-02-28T03:19:50;12.07;;;8.60;;
55776;SDS011;54079;44.540;18.784;2024-02-28T03:22:16;9.07;;;6.72;;
55776;SDS011;54079;44.540;18.784;2024-02-28T03:24:42;5.93;;;4.07;;
55776;SDS011;54079;44.540;18.784;2024-02-28T03:27:08;7.18;;;3.60;;
55776;SDS011;54079;44.540;18.784;2024-02-28T03:29:34;6.78;;;4.25;;
55776;SDS011;54079;44.540;18.784;2024-02-28T03:32:00;8.02;;;4.43;;
55776;SDS011;54079;44.540;18.784;2024-02-28T03:34:26;9.40;;;6.07;;
55776;SDS011;54079;44.540;18.784;2024-02-28T03:36:52;9.05;;;6.13;;
55776;SDS011;54079;44.540;18.784;2024-02-28T03:39:18;7.60;;;4.72;;
55776;SDS011;54079;44.540;18.784;2024-02-28T03:41:44;8.30;;;5.05;;
55776;SDS011;54079;44.540;18.784;2024-02-28T03:44:09;8.68;;;5.78;;
55776;SDS011;54079;44.540;18.784;2024-02-28T03:46:36;6.18;;;4.28;;
55776;SDS011;54079;44.540;18.784;2024-02-28T03:49:02;6.18;;;3.53;;
55776;SDS011;54079;44.540;18.784;2024-02-28T03:51:27;6.13;;;4.28;;
55776;SDS011;54079;44.540;18.784;2024-02-28T03:53:54;7.65;;;4.68;;
55776;SDS011;54079;44.540;18.784;2024-02-28T03:56:24;13.02;;;8.55;;
55776;SDS011;54079;44.540;18.784;2024-02-28T03:58:51;7.82;;;5.30;;
55776;SDS011;54079;44.540;18.784;2024-02-28T04:01:17;7.03;;;4.80;;
55776;SDS011;54079;44.540;18.784;2024-02-28T04:03:43;7.03;;;4.78;;
55776;SDS011;54079;44.540;18.784;2024-02-28T04:06:10;6.53;;;5.03;;
55776;SDS011;54079;44.540;18.784;2024-02-28T04:08:36;4.68;;;2.95;;
55776;SDS011;54079;44.540;18.784;2024-02-28T04:11:03;6.35;;;4.22;;
55776;SDS011;54079;44.540;18.784;2024-02-28T04:13:28;5.18;;;3.38;;
55776;SDS011;54079;44.540;18.784;2024-02-28T04:15:54;5.03;;;3.47;;
55776;SDS011;54079;44.540;18.784;2024-02-28T04:18:20;4.00;;;2.25;;
55776;SDS011;54079;44.540;18.784;2024-02-28T04:20:46;4.22;;;2.30;;
55776;SDS011;54079;44.540;18.784;2024-02-28T04:23:12;5.95;;;3.95;;
55776;SDS011;54079;44.540;18.784;2024-02-28T04:25:38;5.20;;;3.20;;
55776;SDS011;54079;44.540;18.784;2024-02-28T04:28:08;6.07;;;3.22;;
55776;SDS011;54079;44.540;18.784;2024-02-28T04:30:34;6.20;;;3.80;;
55776;SDS011;54079;44.540;18.784;2024-02-28T04:33:01;4.57;;;2.85;;
55776;SDS011;54079;44.540;18.784;2024-02-28T04:35:27;4.50;;;3.65;;
55776;SDS011;54079;44.540;18.784;2024-02-28T04:37:53;4.47;;;3.00;;
55776;SDS011;54079;44.540;18.784;2024-02-28T04:40:19;3.58;;;2.05;;
55776;SDS011;54079;44.540;18.784;2024-02-28T04:42:45;6.05;;;2.78;;
55776;SDS011;54079;44.540;18.784;2024-02-28T04:45:11;5.80;;;3.78;;
55776;SDS011;54079;44.540;18.784;2024-02-28T04:47:37;3.97;;;2.63;;
55776;SDS011;54079;44.540;18.784;2024-02-28T04:50:04;3.40;;;2.58;;
55776;SDS011;54079;44.540;18.784;2024-02-28T04:52:31;6.45;;;4.05;;
55776;SDS011;54079;44.540;18.784;2024-02-28T04:54:57;5.07;;;3.50;;
55776;SDS011;54079;44.540;18.784;2024-02-28T04:57:23;7.22;;;4.22;;
55776;SDS011;54079;44.540;18.784;2024-02-28T04:59:49;5.85;;;3.03;;
55776;SDS011;54079;44.540;18.784;2024-02-28T05:02:15;3.65;;;2.70;;
55776;SDS011;54079;44.540;18.784;2024-02-28T05:04:42;7.22;;;2.65;;
55776;SDS011;54079;44.540;18.784;2024-02-28T05:07:08;7.22;;;3.78;;
55776;SDS011;54079;44.540;18.784;2024-02-28T05:09:34;6.15;;;3.72;;
55776;SDS011;54079;44.540;18.784;2024-02-28T05:12:01;4.72;;;3.45;;
55776;SDS011;54079;44.540;18.784;2024-02-28T05:14:27;5.80;;;3.97;;
55776;SDS011;54079;44.540;18.784;2024-02-28T05:16:53;5.57;;;4.10;;
55776;SDS011;54079;44.540;18.784;2024-02-28T05:19:19;5.63;;;3.17;;
55776;SDS011;54079;44.540;18.784;2024-02-28T05:21:45;4.05;;;3.00;;
55776;SDS011;54079;44.540;18.784;2024-02-28T05:24:13;4.47;;;3.53;;
55776;SDS011;54079;44.540;18.784;2024-02-28T05:26:39;4.35;;;1.90;;
55776;SDS011;54079;44.540;18.784;2024-02-28T05:29:05;6.18;;;2.40;;
55776;SDS011;54079;44.540;18.784;2024-02-28T05:31:32;4.85;;;3.03;;
55776;SDS011;54079;44.540;18.784;2024-02-28T05:33:58;3.85;;;1.95;;
55776;SDS011;54079;44.540;18.784;2024-02-28T05:36:26;2.95;;;1.13;;
55776;SDS011;54079;44.540;18.784;2024-02-28T05:38:53;2.90;;;2.38;;
55776;SDS011;54079;44.540;18.784;2024-02-28T05:41:20;3.78;;;2.10;;
55776;SDS011;54079;44.540;18.784;2024-02-28T05:43:47;3.67;;;2.30;;
55776;SDS011;54079;44.540;18.784;2024-02-28T05:46:13;6.45;;;4.38;;
55776;SDS011;54079;44.540;18.784;2024-02-28T05:48:40;6.68;;;4.85;;
55776;SDS011;54079;44.540;18.784;2024-02-28T05:51:07;12.15;;;6.57;;
55776;SDS011;54079;44.540;18.784;2024-02-28T05:53:33;7.20;;;4.38;;
55776;SDS011;54079;44.540;18.784;2024-02-28T05:56:03;7.28;;;4.60;;
55776;SDS011;54079;44.540;18.784;2024-02-28T05:58:30;10.43;;;6.65;;
55776;SDS011;54079;44.540;18.784;2024-02-28T06:00:56;6.75;;;4.03;;
55776;SDS011;54079;44.540;18.784;2024-02-28T06:03:22;3.83;;;2.70;;
55776;SDS011;54079;44.540;18.784;2024-02-28T06:05:48;3.30;;;1.45;;
55776;SDS011;54079;44.540;18.784;2024-02-28T06:08:14;7.97;;;4.13;;
55776;SDS011;54079;44.540;18.784;2024-02-28T06:10:41;8.00;;;4.93;;
55776;SDS011;54079;44.540;18.784;2024-02-28T06:13:12;7.47;;;3.33;;
55776;SDS011;54079;44.540;18.784;2024-02-28T06:15:38;5.43;;;2.75;;
55776;SDS011;54079;44.540;18.784;2024-02-28T06:18:07;8.95;;;6.43;;
55776;SDS011;54079;44.540;18.784;2024-02-28T06:20:33;11.63;;;7.85;;
55776;SDS011;54079;44.540;18.784;2024-02-28T06:22:59;8.70;;;6.32;;
55776;SDS011;54079;44.540;18.784;2024-02-28T06:25:25;5.35;;;3.65;;
55776;SDS011;54079;44.540;18.784;2024-02-28T06:27:53;2.50;;;1.33;;
55776;SDS011;54079;44.540;18.784;2024-02-28T06:30:19;12.50;;;8.13;;
55776;SDS011;54079;44.540;18.784;2024-02-28T06:32:45;11.27;;;7.57;;
55776;SDS011;54079;44.540;18.784;2024-02-28T06:35:11;8.93;;;6.10;;
55776;SDS011;54079;44.540;18.784;2024-02-28T06:37:37;4.70;;;3.10;;
55776;SDS011;54079;44.540;18.784;2024-02-28T06:40:04;5.68;;;3.38;;
55776;SDS011;54079;44.540;18.784;2024-02-28T06:42:34;8.27;;;4.28;;
55776;SDS011;54079;44.540;18.784;2024-02-28T06:45:02;10.90;;;5.65;;
55776;SDS011;54079;44.540;18.784;2024-02-28T06:47:29;10.52;;;6.50;;
55776;SDS011;54079;44.540;18.784;2024-02-28T06:49:55;8.23;;;5.63;;
55776;SDS011;54079;44.540;18.784;2024-02-28T06:52:21;7.43;;;4.63;;
55776;SDS011;54079;44.540;18.784;2024-02-28T06:54:47;4.60;;;2.70;;
55776;SDS011;54079;44.540;18.784;2024-02-28T06:57:14;7.05;;;5.05;;
55776;SDS011;54079;44.540;18.784;2024-02-28T06:59:40;4.05;;;2.67;;
55776;SDS011;54079;44.540;18.784;2024-02-28T07:02:06;6.85;;;4.90;;
55776;SDS011;54079;44.540;18.784;2024-02-28T07:04:32;6.47;;;4.65;;
55776;SDS011;54079;44.540;18.784;2024-02-28T07:06:58;7.10;;;4.35;;
55776;SDS011;54079;44.540;18.784;2024-02-28T07:09:24;8.80;;;5.38;;
55776;SDS011;54079;44.540;18.784;2024-02-28T07:11:56;5.80;;;4.00;;
55776;SDS011;54079;44.540;18.784;2024-02-28T07:14:22;5.22;;;3.25;;
55776;SDS011;54079;44.540;18.784;2024-02-28T07:16:48;16.17;;;12.57;;
55776;SDS011;54079;44.540;18.784;2024-02-28T07:19:13;11.80;;;8.30;;
55776;SDS011;54079;44.540;18.784;2024-02-28T07:21:40;15.15;;;11.23;;
55776;SDS011;54079;44.540;18.784;2024-02-28T07:24:06;10.65;;;7.28;;
55776;SDS011;54079;44.540;18.784;2024-02-28T07:26:32;7.07;;;5.03;;
55776;SDS011;54079;44.540;18.784;2024-02-28T07:28:58;7.10;;;3.72;;
55776;SDS011;54079;44.540;18.784;2024-02-28T07:31:24;10.68;;;7.53;;
55776;SDS011;54079;44.540;18.784;2024-02-28T07:33:50;6.47;;;4.72;;
55776;SDS011;54079;44.540;18.784;2024-02-28T07:36:16;8.05;;;5.13;;
55776;SDS011;54079;44.540;18.784;2024-02-28T07:38:42;4.80;;;3.13;;
55776;SDS011;54079;44.540;18.784;2024-02-28T07:41:08;4.85;;;1.95;;
55776;SDS011;54079;44.540;18.784;2024-02-28T07:43:34;9.55;;;5.88;;
55776;SDS011;54079;44.540;18.784;2024-02-28T07:46:06;7.78;;;5.60;;
55776;SDS011;54079;44.540;18.784;2024-02-28T07:48:33;7.22;;;3.88;;
55776;SDS011;54079;44.540;18.784;2024-02-28T07:50:59;13.85;;;7.20;;
55776;SDS011;54079;44.540;18.784;2024-02-28T07:53:26;10.35;;;7.03;;
55776;SDS011;54079;44.540;18.784;2024-02-28T07:55:52;7.28;;;3.83;;
55776;SDS011;54079;44.540;18.784;2024-02-28T07:58:18;7.15;;;5.38;;
55776;SDS011;54079;44.540;18.784;2024-02-28T08:00:44;10.02;;;8.23;;
55776;SDS011;54079;44.540;18.784;2024-02-28T08:03:10;12.32;;;9.45;;
55776;SDS011;54079;44.540;18.784;2024-02-28T08:05:36;9.23;;;6.22;;
55776;SDS011;54079;44.540;18.784;2024-02-28T08:10:34;8.55;;;6.70;;
55776;SDS011;54079;44.540;18.784;2024-02-28T08:13:02;9.27;;;7.03;;
55776;SDS011;54079;44.540;18.784;2024-02-28T08:15:29;12.90;;;8.73;;
55776;SDS011;54079;44.540;18.784;2024-02-28T08:17:55;14.38;;;12.57;;
55776;SDS011;54079;44.540;18.784;2024-02-28T08:20:21;8.68;;;5.80;;
55776;SDS011;54079;44.540;18.784;2024-02-28T08:22:47;9.02;;;6.68;;
55776;SDS011;54079;44.540;18.784;2024-02-28T08:25:13;5.45;;;3.80;;
55776;SDS011;54079;44.540;18.784;2024-02-28T08:27:39;6.95;;;4.70;;
55776;SDS011;54079;44.540;18.784;2024-02-28T08:30:06;5.35;;;3.78;;
55776;SDS011;54079;44.540;18.784;2024-02-28T08:32:32;6.10;;;3.45;;
55776;SDS011;54079;44.540;18.784;2024-02-28T08:34:59;13.43;;;11.15;;
55776;SDS011;54079;44.540;18.784;2024-02-28T08:37:25;4.50;;;4.10;;
55776;SDS011;54079;44.540;18.784;2024-02-28T08:39:53;4.97;;;3.28;;
55776;SDS011;54079;44.540;18.784;2024-02-28T08:42:24;16.75;;;15.02;;
55776;SDS011;54079;44.540;18.784;2024-02-28T08:44:51;22.65;;;20.35;;
55776;SDS011;54079;44.540;18.784;2024-02-28T08:47:22;9.93;;;8.90;;
55776;SDS011;54079;44.540;18.784;2024-02-28T08:49:52;15.02;;;11.45;;
55776;SDS011;54079;44.540;18.784;2024-02-28T08:52:19;6.25;;;5.55;;
55776;SDS011;54079;44.540;18.784;2024-02-28T08:54:45;7.60;;;6.80;;
55776;SDS011;54079;44.540;18.784;2024-02-28T08:57:12;13.55;;;11.50;;
55776;SDS011;54079;44.540;18.784;2024-02-28T08:59:38;18.05;;;16.13;;
55776;SDS011;54079;44.540;18.784;2024-02-28T09:02:05;12.20;;;7.05;;
55776;SDS011;54079;44.540;18.784;2024-02-28T09:04:32;13.75;;;9.68;;
55776;SDS011;54079;44.540;18.784;2024-02-28T09:06:58;12.25;;;8.95;;
55776;SDS011;54079;44.540;18.784;2024-02-28T09:09:24;8.52;;;4.00;;
55776;SDS011;54079;44.540;18.784;2024-02-28T09:11:50;8.27;;;4.10;;
55776;SDS011;54079;44.540;18.784;2024-02-28T09:14:16;14.68;;;11.20;;
55776;SDS011;54079;44.540;18.784;2024-02-28T09:16:42;9.93;;;7.43;;
55776;SDS011;54079;44.540;18.784;2024-02-28T09:19:08;11.75;;;9.45;;
55776;SDS011;54079;44.540;18.784;2024-02-28T09:21:34;22.92;;;19.92;;
55776;SDS011;54079;44.540;18.784;2024-02-28T09:24:00;14.05;;;12.55;;
55776;SDS011;54079;44.540;18.784;2024-02-28T09:26:26;12.23;;;10.93;;
55776;SDS011;54079;44.540;18.784;2024-02-28T09:28:52;10.10;;;5.43;;
55776;SDS011;54079;44.540;18.784;2024-02-28T09:31:18;16.83;;;14.60;;
55776;SDS011;54079;44.540;18.784;2024-02-28T09:33:44;15.85;;;11.35;;
55776;SDS011;54079;44.540;18.784;2024-02-28T09:36:11;24.40;;;16.95;;
55776;SDS011;54079;44.540;18.784;2024-02-28T09:38:38;10.07;;;7.45;;
55776;SDS011;54079;44.540;18.784;2024-02-28T09:41:05;9.15;;;5.50;;
55776;SDS011;54079;44.540;18.784;2024-02-28T09:43:31;15.10;;;12.50;;
55776;SDS011;54079;44.540;18.784;2024-02-28T09:46:05;26.80;;;21.38;;
55776;SDS011;54079;44.540;18.784;2024-02-28T09:48:35;12.43;;;5.80;;
55776;SDS011;54079;44.540;18.784;2024-02-28T09:51:03;10.05;;;3.30;;
55776;SDS011;54079;44.540;18.784;2024-02-28T09:53:30;5.72;;;3.17;;
55776;SDS011;54079;44.540;18.784;2024-02-28T09:55:56;11.50;;;6.07;;
55776;SDS011;54079;44.540;18.784;2024-02-28T09:58:22;13.32;;;7.45;;
55776;SDS011;54079;44.540;18.784;2024-02-28T10:00:49;13.57;;;6.18;;
55776;SDS011;54079;44.540;18.784;2024-02-28T10:03:18;18.05;;;12.40;;
55776;SDS011;54079;44.540;18.784;2024-02-28T10:05:45;13.10;;;6.88;;
55776;SDS011;54079;44.540;18.784;2024-02-28T10:08:12;17.48;;;5.10;;
55776;SDS011;54079;44.540;18.784;2024-02-28T10:10:44;18.65;;;11.48;;
55776;SDS011;54079;44.540;18.784;2024-02-28T10:13:16;10.02;;;6.25;;
55776;SDS011;54079;44.540;18.784;2024-02-28T10:15:42;8.43;;;3.20;;
55776;SDS011;54079;44.540;18.784;2024-02-28T10:18:08;7.32;;;4.93;;
55776;SDS011;54079;44.540;18.784;2024-02-28T10:20:35;11.25;;;5.53;;
55776;SDS011;54079;44.540;18.784;2024-02-28T10:23:04;20.92;;;17.63;;
55776;SDS011;54079;44.540;18.784;2024-02-28T10:25:31;14.68;;;11.48;;
55776;SDS011;54079;44.540;18.784;2024-02-28T10:28:01;17.05;;;13.98;;
55776;SDS011;54079;44.540;18.784;2024-02-28T10:30:27;20.80;;;15.55;;
55776;SDS011;54079;44.540;18.784;2024-02-28T10:32:53;14.27;;;8.88;;
55776;SDS011;54079;44.540;18.784;2024-02-28T10:35:21;19.73;;;14.77;;
55776;SDS011;54079;44.540;18.784;2024-02-28T10:37:52;13.23;;;7.88;;
55776;SDS011;54079;44.540;18.784;2024-02-28T10:40:20;13.52;;;7.93;;
55776;SDS011;54079;44.540;18.784;2024-02-28T10:42:47;11.27;;;4.95;;
55776;SDS011;54079;44.540;18.784;2024-02-28T10:45:13;9.02;;;2.47;;
55776;SDS011;54079;44.540;18.784;2024-02-28T10:47:46;6.38;;;3.60;;
55776;SDS011;54079;44.540;18.784;2024-02-28T10:50:13;13.90;;;5.10;;
55776;SDS011;54079;44.540;18.784;2024-02-28T10:52:43;11.02;;;7.70;;
55776;SDS011;54079;44.540;18.784;2024-02-28T10:55:12;12.35;;;6.97;;
55776;SDS011;54079;44.540;18.784;2024-02-28T10:57:39;15.63;;;11.50;;
55776;SDS011;54079;44.540;18.784;2024-02-28T11:00:07;16.17;;;9.95;;
55776;SDS011;54079;44.540;18.784;2024-02-28T11:02:33;13.30;;;7.63;;
55776;SDS011;54079;44.540;18.784;2024-02-28T11:05:00;19.20;;;12.80;;
55776;SDS011;54079;44.540;18.784;2024-02-28T11:07:27;15.93;;;10.65;;
55776;SDS011;54079;44.540;18.784;2024-02-28T11:09:55;10.23;;;4.78;;
55776;SDS011;54079;44.540;18.784;2024-02-28T11:12:28;17.15;;;11.50;;
55776;SDS011;54079;44.540;18.784;2024-02-28T11:15:02;14.18;;;8.65;;
55776;SDS011;54079;44.540;18.784;2024-02-28T11:17:31;14.15;;;8.50;;
55776;SDS011;54079;44.540;18.784;2024-02-28T11:19:58;11.43;;;5.95;;
55776;SDS011;54079;44.540;18.784;2024-02-28T11:22:28;8.18;;;5.47;;
55776;SDS011;54079;44.540;18.784;2024-02-28T11:24:54;7.78;;;3.67;;
55776;SDS011;54079;44.540;18.784;2024-02-28T11:27:21;8.10;;;2.25;;
55776;SDS011;54079;44.540;18.784;2024-02-28T11:29:47;4.90;;;2.55;;
55776;SDS011;54079;44.540;18.784;2024-02-28T11:32:14;14.20;;;9.52;;
55776;SDS011;54079;44.540;18.784;2024-02-28T11:34:41;9.05;;;5.40;;
55776;SDS011;54079;44.540;18.784;2024-02-28T11:37:09;8.88;;;3.80;;
55776;SDS011;54079;44.540;18.784;2024-02-28T11:39:35;8.05;;;3.13;;
55776;SDS011;54079;44.540;18.784;2024-02-28T11:42:08;11.93;;;3.85;;
55776;SDS011;54079;44.540;18.784;2024-02-28T11:44:41;6.05;;;4.03;;
55776;SDS011;54079;44.540;18.784;2024-02-28T11:47:10;11.13;;;6.03;;
55776;SDS011;54079;44.540;18.784;2024-02-28T11:49:39;13.57;;;8.18;;
55776;SDS011;54079;44.540;18.784;2024-02-28T11:52:06;19.30;;;8.50;;
55776;SDS011;54079;44.540;18.784;2024-02-28T11:54:32;17.67;;;12.55;;
55776;SDS011;54079;44.540;18.784;2024-02-28T11:56:58;18.48;;;12.75;;
55776;SDS011;54079;44.540;18.784;2024-02-28T11:59:24;17.42;;;5.90;;
55776;SDS011;54079;44.540;18.784;2024-02-28T12:01:51;21.02;;;18.23;;
55776;SDS011;54079;44.540;18.784;2024-02-28T12:04:17;23.85;;;15.90;;
55776;SDS011;54079;44.540;18.784;2024-02-28T12:06:43;20.88;;;18.10;;
55776;SDS011;54079;44.540;18.784;2024-02-28T12:09:11;19.23;;;14.98;;
55776;SDS011;54079;44.540;18.784;2024-02-28T12:11:41;10.73;;;5.78;;
55776;SDS011;54079;44.540;18.784;2024-02-28T12:14:07;15.45;;;8.48;;
55776;SDS011;54079;44.540;18.784;2024-02-28T12:16:37;11.75;;;6.78;;
55776;SDS011;54079;44.540;18.784;2024-02-28T12:19:07;9.27;;;6.18;;
55776;SDS011;54079;44.540;18.784;2024-02-28T12:21:37;22.92;;;15.32;;
55776;SDS011;54079;44.540;18.784;2024-02-28T12:24:07;10.68;;;6.18;;
55776;SDS011;54079;44.540;18.784;2024-02-28T12:26:36;9.50;;;6.00;;
55776;SDS011;54079;44.540;18.784;2024-02-28T12:29:03;19.33;;;12.45;;
55776;SDS011;54079;44.540;18.784;2024-02-28T12:31:29;20.58;;;13.27;;
55776;SDS011;54079;44.540;18.784;2024-02-28T12:33:55;14.98;;;10.90;;
55776;SDS011;54079;44.540;18.784;2024-02-28T12:36:21;12.70;;;7.80;;
55776;SDS011;54079;44.540;18.784;2024-02-28T12:38:47;13.73;;;7.00;;
55776;SDS011;54079;44.540;18.784;2024-02-28T12:41:13;13.45;;;7.72;;
55776;SDS011;54079;44.540;18.784;2024-02-28T12:43:40;14.18;;;11.20;;
55776;SDS011;54079;44.540;18.784;2024-02-28T12:46:06;13.18;;;9.65;;
55776;SDS011;54079;44.540;18.784;2024-02-28T12:48:39;12.30;;;9.13;;
55776;SDS011;54079;44.540;18.784;2024-02-28T12:51:06;19.77;;;14.63;;
55776;SDS011;54079;44.540;18.784;2024-02-28T12:53:35;15.07;;;9.68;;
55776;SDS011;54079;44.540;18.784;2024-02-28T12:56:01;16.77;;;12.15;;
55776;SDS011;54079;44.540;18.784;2024-02-28T12:58:27;12.55;;;9.45;;
55776;SDS011;54079;44.540;18.784;2024-02-28T13:00:53;12.73;;;8.55;;
55776;SDS011;54079;44.540;18.784;2024-02-28T13:03:19;16.88;;;12.07;;
55776;SDS011;54079;44.540;18.784;2024-02-28T13:05:45;21.25;;;13.85;;
55776;SDS011;54079;44.540;18.784;2024-02-28T13:08:11;12.93;;;6.88;;
55776;SDS011;54079;44.540;18.784;2024-02-28T13:10:38;9.35;;;7.53;;
55776;SDS011;54079;44.540;18.784;2024-02-28T13:13:07;15.30;;;11.75;;
55776;SDS011;54079;44.540;18.784;2024-02-28T13:15:33;12.35;;;8.07;;
55776;SDS011;54079;44.540;18.784;2024-02-28T13:17:59;22.25;;;11.90;;
55776;SDS011;54079;44.540;18.784;2024-02-28T13:20:27;13.82;;;9.50;;
55776;SDS011;54079;44.540;18.784;2024-02-28T13:22:53;14.10;;;10.65;;
55776;SDS011;54079;44.540;18.784;2024-02-28T13:25:20;14.45;;;9.55;;
55776;SDS011;54079;44.540;18.784;2024-02-28T13:27:46;16.98;;;11.20;;
55776;SDS011;54079;44.540;18.784;2024-02-28T13:30:13;20.00;;;14.88;;
55776;SDS011;54079;44.540;18.784;2024-02-28T13:32:40;14.05;;;11.32;;
55776;SDS011;54079;44.540;18.784;2024-02-28T13:35:06;17.45;;;13.88;;
55776;SDS011;54079;44.540;18.784;2024-02-28T13:37:33;16.40;;;13.38;;
55776;SDS011;54079;44.540;18.784;2024-02-28T13:39:59;16.98;;;12.77;;
55776;SDS011;54079;44.540;18.784;2024-02-28T13:42:25;19.65;;;12.93;;
55776;SDS011;54079;44.540;18.784;2024-02-28T13:44:51;12.50;;;10.52;;
55776;SDS011;54079;44.540;18.784;2024-02-28T13:47:17;15.48;;;12.75;;
55776;SDS011;54079;44.540;18.784;2024-02-28T13:49:43;15.90;;;11.18;;
55776;SDS011;54079;44.540;18.784;2024-02-28T13:52:09;14.40;;;11.40;;
55776;SDS011;54079;44.540;18.784;2024-02-28T13:54:35;16.35;;;13.23;;
55776;SDS011;54079;44.540;18.784;2024-02-28T13:57:01;13.32;;;9.15;;
55776;SDS011;54079;44.540;18.784;2024-02-28T13:59:29;16.58;;;11.32;;
55776;SDS011;54079;44.540;18.784;2024-02-28T14:01:55;12.40;;;8.10;;
55776;SDS011;54079;44.540;18.784;2024-02-28T14:04:21;14.93;;;11.48;;
55776;SDS011;54079;44.540;18.784;2024-02-28T14:06:47;18.63;;;14.35;;
55776;SDS011;54079;44.540;18.784;2024-02-28T14:09:14;13.52;;;9.90;;
55776;SDS011;54079;44.540;18.784;2024-02-28T14:11:40;11.18;;;7.68;;
55776;SDS011;54079;44.540;18.784;2024-02-28T14:14:07;15.93;;;11.13;;
55776;SDS011;54079;44.540;18.784;2024-02-28T14:16:32;18.52;;;11.82;;
55776;SDS011;54079;44.540;18.784;2024-02-28T14:18:58;14.25;;;11.23;;
55776;SDS011;54079;44.540;18.784;2024-02-28T14:21:25;16.75;;;10.85;;
55776;SDS011;54079;44.540;18.784;2024-02-28T14:23:51;19.77;;;12.55;;
55776;SDS011;54079;44.540;18.784;2024-02-28T14:26:17;16.50;;;9.38;;